THY9CP LTAC-LTFM
Flight info
| Callsign | THY9CP |
|---|---|
| Flight time | 0h 41m |
| Altitude | 34000 |
| Route | YAVRU1D/21R YAVRU A4 ERSEN |
| Aircraft | A321/M-SDE3FGHIRWY/LB1 |
Departure
| Time | 2026-05-06 18:13 |
|---|---|
| Airport | Esenboğa International Airport (LTAC) |
Arrival
| Time | 2026-05-06 18:54 |
|---|---|
| Airport | İstanbul Airport (LTFM) |
| Time | Latitude | Longitude | Altitude | Speed | Heading |
|---|---|---|---|---|---|
| 2026-05-06 17:37 | 40.11319 | 32.98774 | 3112 ft | 0 kts | 126° |
| 2026-05-06 17:54 | 40.11319 | 32.98773 | 3112 ft | 0 kts | 126° |
| 2026-05-06 17:56 | 40.11326 | 32.98761 | 3112 ft | 4 kts | 131° |
| 2026-05-06 17:57 | 40.11346 | 32.98738 | 3113 ft | 4 kts | 154° |
| 2026-05-06 17:57 | 40.11371 | 32.98730 | 3113 ft | 4 kts | 191° |
| 2026-05-06 17:57 | 40.11384 | 32.98736 | 3113 ft | 1 kts | 216° |
| 2026-05-06 18:02 | 40.11382 | 32.98734 | 3113 ft | 2 kts | 216° |
| 2026-05-06 18:02 | 40.11365 | 32.98718 | 3113 ft | 5 kts | 216° |
| 2026-05-06 18:03 | 40.11320 | 32.98675 | 3110 ft | 11 kts | 216° |
| 2026-05-06 18:03 | 40.11272 | 32.98607 | 3110 ft | 11 kts | 257° |
| 2026-05-06 18:03 | 40.11323 | 32.98552 | 3110 ft | 12 kts | 13° |
| 2026-05-06 18:03 | 40.11395 | 32.98612 | 3110 ft | 13 kts | 36° |
| 2026-05-06 18:04 | 40.11473 | 32.98686 | 3111 ft | 16 kts | 36° |
| 2026-05-06 18:04 | 40.11583 | 32.98791 | 3112 ft | 23 kts | 36° |
| 2026-05-06 18:04 | 40.11718 | 32.98920 | 3113 ft | 24 kts | 36° |
| 2026-05-06 18:04 | 40.11857 | 32.99053 | 3114 ft | 25 kts | 36° |
| 2026-05-06 18:05 | 40.12000 | 32.99190 | 3115 ft | 26 kts | 36° |
| 2026-05-06 18:05 | 40.12144 | 32.99327 | 3117 ft | 26 kts | 36° |
| 2026-05-06 18:05 | 40.12289 | 32.99466 | 3119 ft | 26 kts | 36° |
| 2026-05-06 18:05 | 40.12436 | 32.99606 | 3121 ft | 26 kts | 36° |
| 2026-05-06 18:06 | 40.12583 | 32.99747 | 3122 ft | 26 kts | 36° |
| 2026-05-06 18:06 | 40.12732 | 32.99889 | 3123 ft | 27 kts | 36° |
| 2026-05-06 18:06 | 40.12884 | 33.00034 | 3121 ft | 27 kts | 36° |
| 2026-05-06 18:06 | 40.13037 | 33.00181 | 3126 ft | 27 kts | 36° |
| 2026-05-06 18:07 | 40.13191 | 33.00328 | 3126 ft | 27 kts | 36° |
| 2026-05-06 18:07 | 40.13345 | 33.00475 | 3129 ft | 27 kts | 36° |
| 2026-05-06 18:07 | 40.13500 | 33.00623 | 3131 ft | 28 kts | 36° |
| 2026-05-06 18:07 | 40.13655 | 33.00771 | 3133 ft | 28 kts | 36° |
| 2026-05-06 18:08 | 40.13807 | 33.00916 | 3134 ft | 24 kts | 36° |
| 2026-05-06 18:08 | 40.13933 | 33.01037 | 3135 ft | 20 kts | 36° |
| 2026-05-06 18:08 | 40.14062 | 33.01055 | 3136 ft | 20 kts | 330° |
| 2026-05-06 18:08 | 40.14124 | 33.00912 | 3136 ft | 19 kts | 301° |
| 2026-05-06 18:09 | 40.14193 | 33.00788 | 3136 ft | 13 kts | 306° |
| 2026-05-06 18:09 | 40.14228 | 33.00712 | 3136 ft | 7 kts | 272° |
| 2026-05-06 18:09 | 40.14208 | 33.00687 | 3136 ft | 0 kts | 216° |
| 2026-05-06 18:10 | 40.14207 | 33.00687 | 3136 ft | 0 kts | 216° |
| 2026-05-06 18:11 | 40.14204 | 33.00684 | 3136 ft | 2 kts | 216° |
| 2026-05-06 18:12 | 40.14151 | 33.00632 | 3136 ft | 33 kts | 217° |
| 2026-05-06 18:12 | 40.13749 | 33.00248 | 3132 ft | 108 kts | 216° |
| 2026-05-06 18:12 | 40.12972 | 32.99508 | 3126 ft | 165 kts | 217° |
| 2026-05-06 18:12 | 40.12011 | 32.98586 | 3686 ft | 171 kts | 217° |
| 2026-05-06 18:13 | 40.11047 | 32.97664 | 4447 ft | 175 kts | 217° |
| 2026-05-06 18:13 | 40.10019 | 32.96679 | 4818 ft | 192 kts | 217° |
| 2026-05-06 18:13 | 40.08876 | 32.95588 | 5077 ft | 214 kts | 217° |
| 2026-05-06 18:13 | 40.07614 | 32.94399 | 5360 ft | 235 kts | 217° |
| 2026-05-06 18:14 | 40.06234 | 32.93097 | 5922 ft | 247 kts | 216° |
| 2026-05-06 18:14 | 40.04833 | 32.91779 | 6773 ft | 249 kts | 216° |
| 2026-05-06 18:14 | 40.03423 | 32.90449 | 7578 ft | 251 kts | 216° |
| 2026-05-06 18:14 | 40.02101 | 32.88959 | 8404 ft | 254 kts | 234° |
| 2026-05-06 18:15 | 40.01507 | 32.86795 | 9122 ft | 262 kts | 268° |
| 2026-05-06 18:15 | 40.01943 | 32.84404 | 9493 ft | 283 kts | 298° |
| 2026-05-06 18:15 | 40.03069 | 32.82259 | 10200 ft | 291 kts | 308° |
| 2026-05-06 18:15 | 40.04436 | 32.80208 | 10609 ft | 310 kts | 311° |
| 2026-05-06 18:16 | 40.05944 | 32.78058 | 10824 ft | 333 kts | 311° |
| 2026-05-06 18:16 | 40.07510 | 32.75744 | 10984 ft | 356 kts | 310° |
| 2026-05-06 18:16 | 40.09122 | 32.73206 | 11396 ft | 368 kts | 308° |
| 2026-05-06 18:16 | 40.10709 | 32.70562 | 12088 ft | 372 kts | 307° |
| 2026-05-06 18:17 | 40.12271 | 32.67855 | 12849 ft | 374 kts | 306° |
| 2026-05-06 18:17 | 40.13843 | 32.65070 | 13604 ft | 377 kts | 306° |
| 2026-05-06 18:17 | 40.15398 | 32.62297 | 14328 ft | 379 kts | 306° |
| 2026-05-06 18:17 | 40.16942 | 32.59539 | 14997 ft | 382 kts | 306° |
| 2026-05-06 18:18 | 40.18521 | 32.56726 | 15660 ft | 385 kts | 307° |
| 2026-05-06 18:18 | 40.20128 | 32.53908 | 16318 ft | 388 kts | 309° |
| 2026-05-06 18:18 | 40.22000 | 32.51352 | 16960 ft | 391 kts | 317° |
| 2026-05-06 18:18 | 40.23999 | 32.48909 | 17635 ft | 394 kts | 317° |
| 2026-05-06 18:19 | 40.26010 | 32.46445 | 18271 ft | 398 kts | 317° |
| 2026-05-06 18:19 | 40.28039 | 32.43948 | 18839 ft | 401 kts | 317° |
| 2026-05-06 18:19 | 40.30073 | 32.41438 | 19409 ft | 403 kts | 317° |
| 2026-05-06 18:19 | 40.32116 | 32.38910 | 19971 ft | 405 kts | 317° |
| 2026-05-06 18:20 | 40.34168 | 32.36364 | 20521 ft | 407 kts | 317° |
| 2026-05-06 18:20 | 40.36227 | 32.33809 | 21077 ft | 409 kts | 317° |
| 2026-05-06 18:20 | 40.38300 | 32.31236 | 21617 ft | 411 kts | 317° |
| 2026-05-06 18:20 | 40.40384 | 32.28649 | 22163 ft | 413 kts | 317° |
| 2026-05-06 18:21 | 40.42476 | 32.26054 | 22689 ft | 415 kts | 317° |
| 2026-05-06 18:21 | 40.44583 | 32.23437 | 23178 ft | 417 kts | 317° |
| 2026-05-06 18:21 | 40.46560 | 32.20629 | 23666 ft | 421 kts | 308° |
| 2026-05-06 18:21 | 40.48114 | 32.17357 | 24071 ft | 425 kts | 297° |
| 2026-05-06 18:22 | 40.49247 | 32.13742 | 24479 ft | 429 kts | 293° |
| 2026-05-06 18:22 | 40.50325 | 32.10068 | 24895 ft | 430 kts | 293° |
| 2026-05-06 18:22 | 40.51409 | 32.06393 | 25316 ft | 432 kts | 293° |
| 2026-05-06 18:22 | 40.52488 | 32.02748 | 25717 ft | 434 kts | 293° |
| 2026-05-06 18:23 | 40.53583 | 31.99047 | 26106 ft | 436 kts | 293° |
| 2026-05-06 18:23 | 40.54683 | 31.95321 | 26496 ft | 438 kts | 293° |
| 2026-05-06 18:23 | 40.55786 | 31.91580 | 26889 ft | 440 kts | 293° |
| 2026-05-06 18:23 | 40.56894 | 31.87814 | 27296 ft | 442 kts | 293° |
| 2026-05-06 18:24 | 40.58004 | 31.84035 | 27686 ft | 444 kts | 293° |
| 2026-05-06 18:24 | 40.59070 | 31.80226 | 28180 ft | 443 kts | 292° |
| 2026-05-06 18:24 | 40.60057 | 31.76389 | 28723 ft | 442 kts | 291° |
| 2026-05-06 18:24 | 40.60990 | 31.72540 | 29262 ft | 440 kts | 290° |
| 2026-05-06 18:25 | 40.61899 | 31.68698 | 29783 ft | 439 kts | 290° |
| 2026-05-06 18:25 | 40.62808 | 31.64861 | 30279 ft | 438 kts | 290° |
| 2026-05-06 18:25 | 40.63725 | 31.61047 | 30701 ft | 436 kts | 290° |
| 2026-05-06 18:25 | 40.64653 | 31.57244 | 31147 ft | 435 kts | 291° |
| 2026-05-06 18:26 | 40.65581 | 31.53476 | 31788 ft | 429 kts | 291° |
| 2026-05-06 18:26 | 40.66491 | 31.49781 | 32542 ft | 421 kts | 291° |
| 2026-05-06 18:26 | 40.67389 | 31.46134 | 33087 ft | 417 kts | 291° |
| 2026-05-06 18:26 | 40.68281 | 31.42507 | 33489 ft | 417 kts | 291° |
| 2026-05-06 18:27 | 40.69177 | 31.38863 | 33762 ft | 419 kts | 291° |
| 2026-05-06 18:27 | 40.70077 | 31.35194 | 34019 ft | 422 kts | 291° |
| 2026-05-06 18:27 | 40.71593 | 31.28996 | 34110 ft | 431 kts | 291° |
| 2026-05-06 18:28 | 40.73424 | 31.21456 | 33754 ft | 432 kts | 291° |
| 2026-05-06 18:28 | 40.74334 | 31.17676 | 33481 ft | 433 kts | 291° |
| 2026-05-06 18:28 | 40.74946 | 31.15136 | 33301 ft | 433 kts | 291° |
| 2026-05-06 18:29 | 40.75401 | 31.13249 | 33170 ft | 433 kts | 291° |
| 2026-05-06 18:29 | 40.76318 | 31.09454 | 32874 ft | 434 kts | 290° |
| 2026-05-06 18:29 | 40.77237 | 31.05650 | 32612 ft | 436 kts | 290° |
| 2026-05-06 18:29 | 40.78155 | 31.01835 | 32342 ft | 437 kts | 290° |
| 2026-05-06 18:30 | 40.79073 | 30.98016 | 32052 ft | 437 kts | 290° |
| 2026-05-06 18:30 | 40.79993 | 30.94178 | 31143 ft | 442 kts | 290° |
| 2026-05-06 18:30 | 40.80921 | 30.90295 | 30266 ft | 445 kts | 290° |
| 2026-05-06 18:30 | 40.81724 | 30.86335 | 29454 ft | 447 kts | 281° |
| 2026-05-06 18:31 | 40.81983 | 30.82297 | 29320 ft | 433 kts | 277° |
| 2026-05-06 18:31 | 40.82207 | 30.78404 | 29203 ft | 418 kts | 277° |
| 2026-05-06 18:31 | 40.82438 | 30.74640 | 29101 ft | 419 kts | 278° |
| 2026-05-06 18:31 | 40.82681 | 30.70773 | 29000 ft | 424 kts | 278° |
| 2026-05-06 18:32 | 40.82920 | 30.66883 | 28898 ft | 426 kts | 277° |
| 2026-05-06 18:32 | 40.83151 | 30.62978 | 28794 ft | 426 kts | 277° |
| 2026-05-06 18:32 | 40.83373 | 30.59066 | 28691 ft | 427 kts | 277° |
| 2026-05-06 18:32 | 40.83593 | 30.55145 | 28588 ft | 428 kts | 277° |
| 2026-05-06 18:33 | 40.83808 | 30.51222 | 28483 ft | 428 kts | 277° |
| 2026-05-06 18:33 | 40.84022 | 30.47302 | 28057 ft | 431 kts | 277° |
| 2026-05-06 18:33 | 40.84247 | 30.43275 | 26563 ft | 446 kts | 277° |
| 2026-05-06 18:33 | 40.84476 | 30.39169 | 25584 ft | 450 kts | 276° |
| 2026-05-06 18:34 | 40.84700 | 30.35034 | 24698 ft | 451 kts | 276° |
| 2026-05-06 18:34 | 40.84918 | 30.30895 | 23795 ft | 452 kts | 276° |
| 2026-05-06 18:34 | 40.85132 | 30.26768 | 22912 ft | 449 kts | 276° |
| 2026-05-06 18:34 | 40.85342 | 30.22663 | 22111 ft | 445 kts | 275° |
| 2026-05-06 18:35 | 40.85540 | 30.18604 | 21353 ft | 440 kts | 275° |
| 2026-05-06 18:35 | 40.85744 | 30.14593 | 20616 ft | 435 kts | 276° |
| 2026-05-06 18:35 | 40.85955 | 30.10624 | 19885 ft | 431 kts | 276° |
| 2026-05-06 18:35 | 40.86165 | 30.06703 | 19192 ft | 426 kts | 276° |
| 2026-05-06 18:36 | 40.86369 | 30.02827 | 18508 ft | 421 kts | 276° |
| 2026-05-06 18:36 | 40.86567 | 29.98985 | 17738 ft | 417 kts | 276° |
| 2026-05-06 18:36 | 40.86761 | 29.95177 | 17010 ft | 413 kts | 276° |
| 2026-05-06 18:36 | 40.86956 | 29.91450 | 16332 ft | 409 kts | 276° |
| 2026-05-06 18:37 | 40.87143 | 29.87712 | 15691 ft | 406 kts | 276° |
| 2026-05-06 18:37 | 40.87320 | 29.84011 | 15087 ft | 402 kts | 276° |
| 2026-05-06 18:37 | 40.87495 | 29.80336 | 14501 ft | 398 kts | 276° |
| 2026-05-06 18:37 | 40.87672 | 29.76715 | 13944 ft | 393 kts | 276° |
| 2026-05-06 18:38 | 40.87849 | 29.73133 | 13277 ft | 389 kts | 276° |
| 2026-05-06 18:38 | 40.88025 | 29.69584 | 12596 ft | 385 kts | 276° |
| 2026-05-06 18:38 | 40.88202 | 29.66067 | 11925 ft | 382 kts | 276° |
| 2026-05-06 18:38 | 40.88371 | 29.62579 | 11265 ft | 378 kts | 276° |
| 2026-05-06 18:39 | 40.88528 | 29.59190 | 11108 ft | 361 kts | 276° |
| 2026-05-06 18:39 | 40.88675 | 29.55963 | 10980 ft | 343 kts | 276° |
| 2026-05-06 18:39 | 40.88818 | 29.52882 | 10849 ft | 328 kts | 276° |
| 2026-05-06 18:40 | 40.89086 | 29.47117 | 10606 ft | 301 kts | 277° |
| 2026-05-06 18:40 | 40.89215 | 29.44407 | 10480 ft | 290 kts | 277° |
| 2026-05-06 18:40 | 40.89338 | 29.41812 | 10225 ft | 284 kts | 277° |
| 2026-05-06 18:40 | 40.89459 | 29.39208 | 9889 ft | 282 kts | 277° |
| 2026-05-06 18:41 | 40.89576 | 29.36627 | 9523 ft | 281 kts | 277° |
| 2026-05-06 18:41 | 40.89691 | 29.34054 | 9155 ft | 279 kts | 277° |
| 2026-05-06 18:41 | 40.89804 | 29.31510 | 8795 ft | 277 kts | 277° |
| 2026-05-06 18:41 | 40.89918 | 29.28973 | 8439 ft | 275 kts | 277° |
| 2026-05-06 18:42 | 40.90032 | 29.26462 | 8115 ft | 273 kts | 276° |
| 2026-05-06 18:42 | 40.90145 | 29.23959 | 7804 ft | 272 kts | 277° |
| 2026-05-06 18:42 | 40.90258 | 29.21470 | 7511 ft | 270 kts | 277° |
| 2026-05-06 18:42 | 40.90369 | 29.19007 | 7217 ft | 268 kts | 277° |
| 2026-05-06 18:43 | 40.90478 | 29.16554 | 6971 ft | 267 kts | 276° |
| 2026-05-06 18:43 | 40.90584 | 29.14112 | 6731 ft | 266 kts | 276° |
| 2026-05-06 18:43 | 40.90689 | 29.11674 | 6485 ft | 265 kts | 276° |
| 2026-05-06 18:43 | 40.90792 | 29.09252 | 6229 ft | 263 kts | 276° |
| 2026-05-06 18:44 | 40.90895 | 29.06836 | 5949 ft | 262 kts | 276° |
| 2026-05-06 18:44 | 40.90998 | 29.04442 | 5671 ft | 261 kts | 276° |
| 2026-05-06 18:44 | 40.91103 | 29.02053 | 5392 ft | 259 kts | 276° |
| 2026-05-06 18:44 | 40.91228 | 28.99680 | 5062 ft | 258 kts | 278° |
| 2026-05-06 18:45 | 40.91413 | 28.97350 | 4781 ft | 255 kts | 279° |
| 2026-05-06 18:45 | 40.91626 | 28.95017 | 4518 ft | 256 kts | 279° |
| 2026-05-06 18:45 | 40.91842 | 28.92691 | 4262 ft | 254 kts | 278° |
| 2026-05-06 18:45 | 40.92056 | 28.90370 | 4061 ft | 254 kts | 278° |
| 2026-05-06 18:46 | 40.92268 | 28.88046 | 4006 ft | 255 kts | 278° |
| 2026-05-06 18:46 | 40.92477 | 28.85707 | 4010 ft | 256 kts | 278° |
| 2026-05-06 18:46 | 40.92684 | 28.83368 | 4010 ft | 256 kts | 278° |
| 2026-05-06 18:46 | 40.93024 | 28.81068 | 4008 ft | 254 kts | 292° |
| 2026-05-06 18:47 | 40.93897 | 28.79049 | 4010 ft | 253 kts | 309° |
| 2026-05-06 18:47 | 40.95183 | 28.77477 | 4010 ft | 253 kts | 326° |
| 2026-05-06 18:47 | 40.96776 | 28.76490 | 4011 ft | 254 kts | 343° |
| 2026-05-06 18:47 | 40.98532 | 28.76188 | 4010 ft | 257 kts | 357° |
| 2026-05-06 18:48 | 41.00321 | 28.76157 | 4011 ft | 257 kts | 357° |
| 2026-05-06 18:48 | 41.02109 | 28.76126 | 4010 ft | 257 kts | 357° |
| 2026-05-06 18:48 | 41.03883 | 28.76093 | 4006 ft | 249 kts | 357° |
| 2026-05-06 18:48 | 41.05561 | 28.76062 | 4013 ft | 233 kts | 357° |
| 2026-05-06 18:49 | 41.07110 | 28.76034 | 3971 ft | 215 kts | 357° |
| 2026-05-06 18:49 | 41.08582 | 28.76005 | 3760 ft | 208 kts | 357° |
| 2026-05-06 18:49 | 41.10009 | 28.75977 | 3498 ft | 203 kts | 357° |
| 2026-05-06 18:49 | 41.11398 | 28.75951 | 3250 ft | 195 kts | 357° |
| 2026-05-06 18:50 | 41.12717 | 28.75926 | 2973 ft | 184 kts | 358° |
| 2026-05-06 18:50 | 41.13967 | 28.75903 | 2752 ft | 176 kts | 358° |
| 2026-05-06 18:50 | 41.15168 | 28.75880 | 2507 ft | 169 kts | 358° |
| 2026-05-06 18:50 | 41.16311 | 28.75858 | 2286 ft | 163 kts | 358° |
| 2026-05-06 18:51 | 41.17422 | 28.75836 | 2086 ft | 157 kts | 358° |
| 2026-05-06 18:51 | 41.18486 | 28.75816 | 1889 ft | 149 kts | 358° |
| 2026-05-06 18:51 | 41.19510 | 28.75799 | 1671 ft | 146 kts | 359° |
| 2026-05-06 18:51 | 41.20516 | 28.75781 | 1466 ft | 143 kts | 359° |
| 2026-05-06 18:52 | 41.21509 | 28.75760 | 1279 ft | 141 kts | 359° |
| 2026-05-06 18:52 | 41.22486 | 28.75743 | 1083 ft | 139 kts | 0° |
| 2026-05-06 18:52 | 41.23450 | 28.75720 | 913 ft | 138 kts | 0° |
| 2026-05-06 18:52 | 41.24411 | 28.75694 | 734 ft | 138 kts | 2° |
| 2026-05-06 18:53 | 41.25367 | 28.75679 | 557 ft | 137 kts | 3° |
| 2026-05-06 18:53 | 41.26317 | 28.75664 | 373 ft | 137 kts | 2° |
| 2026-05-06 18:53 | 41.27183 | 28.75650 | 333 ft | 107 kts | 359° |
| 2026-05-06 18:53 | 41.27753 | 28.75638 | 330 ft | 57 kts | 359° |
| 2026-05-06 18:54 | 41.28028 | 28.75581 | 333 ft | 33 kts | 334° |
| 2026-05-06 18:54 | 41.28161 | 28.75450 | 332 ft | 17 kts | 287° |
| 2026-05-06 18:54 | 41.28100 | 28.75348 | 334 ft | 16 kts | 181° |
| 2026-05-06 18:54 | 41.27986 | 28.75351 | 332 ft | 17 kts | 179° |
| 2026-05-06 18:55 | 41.27879 | 28.75353 | 331 ft | 15 kts | 179° |
| 2026-05-06 18:55 | 41.27793 | 28.75355 | 330 ft | 12 kts | 179° |
| 2026-05-06 18:55 | 41.27720 | 28.75357 | 333 ft | 11 kts | 179° |
| 2026-05-06 18:55 | 41.27638 | 28.75359 | 334 ft | 12 kts | 179° |
| 2026-05-06 18:56 | 41.27558 | 28.75360 | 334 ft | 12 kts | 179° |
| 2026-05-06 18:56 | 41.27474 | 28.75362 | 333 ft | 12 kts | 178° |
| 2026-05-06 18:56 | 41.27386 | 28.75365 | 334 ft | 14 kts | 179° |
| 2026-05-06 18:56 | 41.27285 | 28.75367 | 331 ft | 16 kts | 179° |
| 2026-05-06 18:57 | 41.27175 | 28.75369 | 330 ft | 16 kts | 179° |
| 2026-05-06 18:57 | 41.27082 | 28.75343 | 331 ft | 14 kts | 235° |
| 2026-05-06 18:57 | 41.27017 | 28.75262 | 331 ft | 15 kts | 184° |
| 2026-05-06 18:57 | 41.26909 | 28.75263 | 333 ft | 17 kts | 179° |
| 2026-05-06 18:58 | 41.26788 | 28.75265 | 333 ft | 18 kts | 179° |
| 2026-05-06 18:58 | 41.26653 | 28.75269 | 334 ft | 20 kts | 178° |
| 2026-05-06 18:58 | 41.26507 | 28.75272 | 331 ft | 21 kts | 179° |
| 2026-05-06 18:58 | 41.26362 | 28.75275 | 333 ft | 21 kts | 179° |
| 2026-05-06 18:59 | 41.26211 | 28.75279 | 333 ft | 22 kts | 179° |
| 2026-05-06 18:59 | 41.26054 | 28.75283 | 331 ft | 23 kts | 179° |
| 2026-05-06 18:59 | 41.25888 | 28.75287 | 331 ft | 24 kts | 179° |
| 2026-05-06 18:59 | 41.25736 | 28.75290 | 331 ft | 18 kts | 179° |
| 2026-05-06 19:00 | 41.25651 | 28.75238 | 330 ft | 14 kts | 266° |
| 2026-05-06 19:00 | 41.25648 | 28.75106 | 330 ft | 11 kts | 270° |
| 2026-05-06 19:00 | 41.25681 | 28.75045 | 333 ft | 8 kts | 350° |
| 2026-05-06 19:00 | 41.25717 | 28.75043 | 330 ft | 6 kts | 359° |
| 2026-05-06 19:01 | 41.25739 | 28.75043 | 332 ft | 1 kts | 359° |
| 2026-05-06 19:01 | 41.25741 | 28.75043 | 332 ft | 0 kts | 359° |